createdAt,value
2023-03-29T00:00:34.809Z,101209.31
2023-03-29T00:04:03.029Z,101206.17
2023-03-29T00:07:30.643Z,101207.15
2023-03-29T00:10:40.726Z,101205.30
2023-03-29T00:13:50.654Z,101201.84
2023-03-29T00:17:18.364Z,101205.23
2023-03-29T00:20:47.202Z,101215.23
2023-03-29T00:24:15.158Z,101217.73
2023-03-29T00:27:23.818Z,101222.02
2023-03-29T00:30:51.694Z,101223.71
2023-03-29T00:34:19.572Z,101224.02
2023-03-29T00:37:27.921Z,101225.49
2023-03-29T00:40:55.897Z,101233.13
2023-03-29T00:44:03.882Z,101234.62
2023-03-29T00:46:33.673Z,101235.89
2023-03-29T00:50:01.467Z,101237.12
2023-03-29T00:53:29.548Z,101233.04
2023-03-29T00:56:57.523Z,101234.48
2023-03-29T00:59:46.433Z,101232.73
2023-03-29T01:02:55.358Z,101231.58
2023-03-29T01:06:23.063Z,101233.30
2023-03-29T01:09:31.227Z,101233.48
2023-03-29T01:12:58.883Z,101231.65
2023-03-29T01:16:27.720Z,101226.54
2023-03-29T01:19:55.560Z,101225.99
2023-03-29T01:23:23.348Z,101224.31
2023-03-29T01:26:51.109Z,101222.93
2023-03-29T01:29:59.794Z,101221.43
2023-03-29T01:33:28.204Z,101219.02
2023-03-29T01:36:56.375Z,101218.67
2023-03-29T01:40:24.449Z,101212.70
2023-03-29T01:43:52.375Z,101214.89
2023-03-29T01:47:20.239Z,101209.92
2023-03-29T01:50:49.054Z,101209.02
2023-03-29T01:53:38.270Z,101211.13
2023-03-29T01:56:46.448Z,101212.73
2023-03-29T02:00:14.174Z,101213.45
2023-03-29T02:03:42.300Z,101213.98
2023-03-29T02:07:10.230Z,101212.85
2023-03-29T02:10:38.185Z,101209.80
2023-03-29T02:14:06.176Z,101211.02
2023-03-29T02:17:33.901Z,101213.30
2023-03-29T02:21:01.923Z,101213.69
2023-03-29T02:24:29.605Z,101212.83
2023-03-29T02:27:57.333Z,101212.79
2023-03-29T02:31:06.409Z,101215.10
2023-03-29T02:34:34.736Z,101212.02
2023-03-29T02:38:02.773Z,101211.33
2023-03-29T02:41:30.824Z,101211.16
2023-03-29T02:44:58.778Z,101215.25
2023-03-29T02:48:07.826Z,101221.77
2023-03-29T02:51:35.612Z,101217.06
2023-03-29T02:54:45.203Z,101210.88
2023-03-29T02:57:54.299Z,101213.91
2023-03-29T03:01:23.269Z,101213.20
2023-03-29T03:04:51.301Z,101223.21
2023-03-29T03:07:42.006Z,101219.68
2023-03-29T03:11:09.885Z,101221.04
2023-03-29T03:14:37.644Z,101221.89
2023-03-29T03:18:05.473Z,101228.62
2023-03-29T03:21:33.287Z,101234.28
2023-03-29T03:25:01.022Z,101242.57
2023-03-29T03:28:29.390Z,101248.79
2023-03-29T03:31:38.437Z,101247.42
2023-03-29T03:35:04.970Z,101250.83
2023-03-29T03:38:13.619Z,101257.29
2023-03-29T03:41:41.442Z,101261.05
2023-03-29T03:45:09.288Z,101267.65
2023-03-29T03:48:37.090Z,101272.29
2023-03-29T03:52:04.917Z,101278.67
2023-03-29T03:55:32.827Z,101283.98
2023-03-29T03:58:43.960Z,101284.74
2023-03-29T04:02:12.045Z,101288.14
2023-03-29T04:05:40.608Z,101293.68
2023-03-29T04:09:08.533Z,101301.66
2023-03-29T04:12:36.444Z,101303.79
2023-03-29T04:16:04.282Z,101314.63
2023-03-29T04:19:32.352Z,101323.45
2023-03-29T04:23:00.285Z,101328.79
2023-03-29T04:26:28.162Z,101335.71
2023-03-29T04:29:55.803Z,101341.73
2023-03-29T04:33:36.136Z,101344.56
2023-03-29T04:37:03.783Z,101346.34
2023-03-29T04:39:53.715Z,101349.54
2023-03-29T04:43:24.358Z,101357.08
2023-03-29T04:46:52.135Z,101359.52
2023-03-29T04:50:07.297Z,101368.60
2023-03-29T04:53:35.600Z,101375.59
2023-03-29T04:57:03.279Z,101381.06
2023-03-29T05:00:37.213Z,101386.30
2023-03-29T05:04:12.818Z,101391.41
2023-03-29T05:07:42.341Z,101393.85
2023-03-29T05:11:10.317Z,101387.34
2023-03-29T05:14:20.155Z,101392.58
2023-03-29T05:17:47.977Z,101393.80
2023-03-29T05:21:15.623Z,101393.61
2023-03-29T05:24:43.540Z,101394.79
2023-03-29T05:28:11.310Z,101394.73
2023-03-29T05:31:39.270Z,101392.71
2023-03-29T05:35:07.119Z,101397.91
2023-03-29T05:37:58.246Z,101401.48
2023-03-29T05:41:08.015Z,101401.48
2023-03-29T05:44:18.671Z,101402.45
2023-03-29T05:47:46.629Z,101406.40
2023-03-29T05:51:14.353Z,101405.02
2023-03-29T05:54:42.322Z,101407.58
2023-03-29T05:58:10.343Z,101413.84
2023-03-29T06:01:19.275Z,101422.90
2023-03-29T06:04:47.109Z,101427.34
2023-03-29T06:08:15.521Z,101432.31
2023-03-29T06:11:46.343Z,101433.33
2023-03-29T06:15:16.957Z,101435.76
2023-03-29T06:18:44.800Z,101432.52
2023-03-29T06:22:14.699Z,101429.23
2023-03-29T06:25:40.858Z,101431.44
2023-03-29T06:29:08.813Z,101437.95
2023-03-29T06:32:17.689Z,101442.00
2023-03-29T06:35:48.548Z,101447.02
2023-03-29T06:39:16.865Z,101451.65
2023-03-29T06:42:44.935Z,101456.83
2023-03-29T06:46:25.285Z,101462.93
2023-03-29T06:49:53.286Z,101469.42
2023-03-29T06:53:10.990Z,101473.67
2023-03-29T06:56:38.880Z,101470.52
2023-03-29T07:00:06.830Z,101475.63
2023-03-29T07:03:46.092Z,101477.30
2023-03-29T07:07:11.165Z,101481.79
2023-03-29T07:10:39.407Z,101485.69
2023-03-29T07:14:05.766Z,101486.31
2023-03-29T07:17:15.231Z,101483.39
2023-03-29T07:20:42.979Z,101487.05
2023-03-29T07:24:11.221Z,101490.80
2023-03-29T07:27:39.184Z,101492.07
2023-03-29T07:31:06.965Z,101494.90
2023-03-29T07:34:34.912Z,101498.08
2023-03-29T07:38:02.604Z,101503.61
2023-03-29T07:41:30.336Z,101501.38
2023-03-29T07:44:57.997Z,101502.64
2023-03-29T07:48:25.761Z,101506.14
2023-03-29T07:51:54.008Z,101510.82
2023-03-29T07:55:22.298Z,101514.27
2023-03-29T07:58:50.012Z,101509.46
2023-03-29T08:02:18.947Z,101505.19
2023-03-29T08:05:46.977Z,101511.27
2023-03-29T08:09:14.801Z,101507.56
2023-03-29T08:12:42.947Z,101515.21
2023-03-29T08:16:27.713Z,101514.30
2023-03-29T08:19:55.831Z,101504.87
2023-03-29T08:23:23.854Z,101508.73
2023-03-29T08:26:51.719Z,101506.80
2023-03-29T08:30:19.411Z,101503.42
2023-03-29T08:33:47.227Z,101508.21
2023-03-29T08:36:55.396Z,101503.18
2023-03-29T08:40:23.353Z,101502.09
2023-03-29T08:43:31.184Z,101507.15
2023-03-29T08:47:14.685Z,101504.44
2023-03-29T08:50:45.654Z,101508.96
2023-03-29T08:54:13.338Z,101509.02
2023-03-29T08:57:30.221Z,101513.06
2023-03-29T09:00:57.989Z,101508.70
2023-03-29T09:04:31.587Z,101507.74
2023-03-29T09:08:11.901Z,101506.92
2023-03-29T09:11:39.779Z,101510.62
2023-03-29T09:15:07.780Z,101510.73
2023-03-29T09:18:35.933Z,101515.77
2023-03-29T09:22:03.874Z,101515.91
2023-03-29T09:25:34.490Z,101510.67
2023-03-29T09:28:59.923Z,101514.47
2023-03-29T09:32:27.848Z,101511.92
2023-03-29T09:35:55.544Z,101510.65
2023-03-29T09:39:23.642Z,101510.91
2023-03-29T09:42:51.522Z,101510.70
2023-03-29T09:45:40.476Z,101514.61
2023-03-29T09:49:08.238Z,101512.96
2023-03-29T09:52:36.001Z,101514.14
2023-03-29T09:56:03.927Z,101510.27
2023-03-29T09:59:15.494Z,101511.83
2023-03-29T10:02:24.260Z,101508.10
2023-03-29T10:05:51.945Z,101502.97
2023-03-29T10:09:19.764Z,101501.05
2023-03-29T10:12:28.523Z,101498.59
2023-03-29T10:15:56.376Z,101490.71
2023-03-29T10:19:24.314Z,101486.11
2023-03-29T10:22:52.196Z,101480.86
2023-03-29T10:26:20.056Z,101476.00
2023-03-29T10:29:48.059Z,101476.16
2023-03-29T10:33:15.818Z,101471.30
2023-03-29T10:36:43.695Z,101460.42
2023-03-29T10:40:14.566Z,101459.83
2023-03-29T10:43:24.796Z,101447.27
2023-03-29T10:46:52.778Z,101441.42
2023-03-29T10:50:20.635Z,101440.55
2023-03-29T10:53:48.630Z,101439.95
2023-03-29T10:57:16.470Z,101428.88
2023-03-29T11:00:44.309Z,101423.92
2023-03-29T11:04:12.340Z,101413.97
2023-03-29T11:07:40.090Z,101415.68
2023-03-29T11:11:07.954Z,101411.13
2023-03-29T11:14:35.928Z,101404.00
2023-03-29T11:18:03.948Z,101404.05
2023-03-29T11:21:32.080Z,101398.74
2023-03-29T11:25:00.249Z,101389.55
2023-03-29T11:28:28.491Z,101387.14
2023-03-29T11:31:56.297Z,101384.20
2023-03-29T11:35:24.246Z,101379.44
2023-03-29T11:38:52.174Z,101382.85
2023-03-29T11:42:20.046Z,101370.34
2023-03-29T11:45:28.946Z,101368.42
2023-03-29T11:48:56.692Z,101363.84
2023-03-29T11:52:24.691Z,101356.63
2023-03-29T11:55:52.490Z,101348.15
2023-03-29T11:59:20.195Z,101353.15
2023-03-29T12:02:48.640Z,101353.52
2023-03-29T12:06:16.155Z,101349.10
2023-03-29T12:09:43.905Z,101346.63
2023-03-29T12:13:12.035Z,101343.66
2023-03-29T12:16:39.973Z,101346.67
2023-03-29T12:20:07.705Z,101345.84
2023-03-29T12:23:35.738Z,101340.78
2023-03-29T12:27:03.633Z,101347.24
2023-03-29T12:30:33.198Z,101341.14
2023-03-29T12:33:59.719Z,101335.50
2023-03-29T12:37:20.011Z,101325.55
2023-03-29T12:40:46.664Z,101325.74
2023-03-29T12:44:12.879Z,101326.52
2023-03-29T12:47:41.066Z,101321.51
2023-03-29T12:50:49.301Z,101317.08
2023-03-29T12:54:17.288Z,101319.27
2023-03-29T12:57:45.157Z,101319.71
2023-03-29T13:01:13.507Z,101321.66
2023-03-29T13:04:41.213Z,101311.85
2023-03-29T13:08:10.267Z,101305.39
2023-03-29T13:11:38.159Z,101297.56
2023-03-29T13:15:05.878Z,101295.30
2023-03-29T13:18:33.671Z,101296.80
2023-03-29T13:22:01.586Z,101294.71
2023-03-29T13:25:29.726Z,101289.80
2023-03-29T13:28:58.507Z,101277.94
2023-03-29T13:32:25.563Z,101275.80
2023-03-29T13:35:53.590Z,101281.27
2023-03-29T13:39:21.412Z,101272.08
2023-03-29T13:42:49.326Z,101269.09
2023-03-29T13:45:58.512Z,101268.13
2023-03-29T13:49:26.545Z,101263.48
2023-03-29T13:52:54.499Z,101264.91
2023-03-29T13:56:22.929Z,101257.95
2023-03-29T13:59:39.479Z,101253.00
2023-03-29T14:03:07.476Z,101241.84
2023-03-29T14:06:35.354Z,101239.80
2023-03-29T14:10:03.039Z,101232.93
2023-03-29T14:13:30.820Z,101236.12
2023-03-29T14:16:58.911Z,101236.09
2023-03-29T14:20:26.795Z,101234.40
2023-03-29T14:23:54.697Z,101233.98
2023-03-29T14:27:22.469Z,101224.08
2023-03-29T14:30:50.927Z,101220.23
2023-03-29T14:34:19.093Z,101221.77
2023-03-29T14:37:48.035Z,101228.51
2023-03-29T14:41:16.053Z,101224.48
2023-03-29T14:44:44.053Z,101219.67
2023-03-29T14:48:12.065Z,101218.38
2023-03-29T14:51:39.934Z,101216.40
2023-03-29T14:55:08.001Z,101217.58
2023-03-29T14:58:16.869Z,101208.66
2023-03-29T15:01:44.862Z,101204.33
2023-03-29T15:05:12.686Z,101203.15
2023-03-29T15:08:45.771Z,101206.77
2023-03-29T15:12:08.701Z,101205.80
2023-03-29T15:15:37.136Z,101203.02
2023-03-29T15:19:05.001Z,101207.36
2023-03-29T15:22:33.138Z,101205.16
2023-03-29T15:26:01.104Z,101209.61
2023-03-29T15:29:28.902Z,101206.96
2023-03-29T15:32:56.916Z,101210.04
2023-03-29T15:36:24.905Z,101202.90
2023-03-29T15:39:52.750Z,101197.69
2023-03-29T15:43:01.161Z,101203.38
2023-03-29T15:46:29.120Z,101195.85
2023-03-29T15:49:57.293Z,101194.98
2023-03-29T15:53:25.073Z,101196.39
2023-03-29T15:56:53.284Z,101193.84
2023-03-29T16:00:21.144Z,101190.48
2023-03-29T16:06:59.067Z,101190.70
2023-03-29T16:10:26.707Z,101186.73
2023-03-29T16:13:54.667Z,101186.27
2023-03-29T16:17:22.606Z,101187.70
2023-03-29T16:20:50.498Z,101188.48
2023-03-29T16:24:18.633Z,101188.60
2023-03-29T16:27:46.493Z,101186.73
2023-03-29T16:30:55.524Z,101186.52
2023-03-29T16:34:23.414Z,101182.13
2023-03-29T16:37:51.478Z,101182.80
2023-03-29T16:41:00.480Z,101186.70
2023-03-29T16:44:29.076Z,101185.45
2023-03-29T16:47:56.863Z,101186.48
2023-03-29T16:51:24.532Z,101191.09
2023-03-29T16:54:52.834Z,101187.44
2023-03-29T16:58:01.564Z,101187.06
2023-03-29T17:01:29.683Z,101183.04
2023-03-29T17:04:58.988Z,101184.38
2023-03-29T17:08:26.930Z,101183.63
2023-03-29T17:11:54.959Z,101180.61
2023-03-29T17:15:23.447Z,101178.70
2023-03-29T17:18:51.473Z,101179.06
2023-03-29T17:22:19.709Z,101180.65
2023-03-29T17:25:47.860Z,101182.37
2023-03-29T17:29:15.904Z,101183.21
2023-03-29T17:32:25.165Z,101189.48
2023-03-29T17:35:53.216Z,101193.04
2023-03-29T17:39:23.885Z,101195.06
2023-03-29T17:42:51.945Z,101203.24
2023-03-29T17:46:20.019Z,101203.55
2023-03-29T17:49:48.005Z,101204.99
2023-03-29T17:53:16.161Z,101212.69
2023-03-29T17:56:24.859Z,101214.16
2023-03-29T17:59:14.733Z,101215.41
2023-03-29T18:02:42.920Z,101224.16
2023-03-29T18:06:10.753Z,101224.59
2023-03-29T18:09:39.286Z,101225.36
2023-03-29T18:13:07.327Z,101224.92
2023-03-29T18:16:35.387Z,101228.95
2023-03-29T18:19:47.002Z,101230.59
2023-03-29T18:22:36.290Z,101229.61
2023-03-29T18:26:06.964Z,101232.17
2023-03-29T18:29:36.784Z,101237.63
2023-03-29T18:33:05.282Z,101241.28
2023-03-29T18:36:33.906Z,101250.35
2023-03-29T18:40:03.428Z,101249.61
2023-03-29T18:42:55.306Z,101247.77
2023-03-29T18:46:23.593Z,101244.79
2023-03-29T18:49:51.823Z,101246.61
2023-03-29T18:53:19.856Z,101251.66
2023-03-29T18:56:48.041Z,101251.81
2023-03-29T18:59:56.838Z,101251.29
2023-03-29T19:03:25.031Z,101250.89
2023-03-29T19:06:53.481Z,101252.72
2023-03-29T19:10:21.690Z,101255.80
2023-03-29T19:13:49.636Z,101257.80
2023-03-29T19:17:17.671Z,101254.42
2023-03-29T19:20:46.724Z,101252.77
2023-03-29T19:24:14.829Z,101250.87
2023-03-29T19:27:42.579Z,101251.88
2023-03-29T19:31:10.401Z,101256.27
2023-03-29T19:34:38.255Z,101253.63
2023-03-29T19:38:07.089Z,101247.90
2023-03-29T19:41:35.114Z,101249.86
2023-03-29T19:45:03.085Z,101248.88
2023-03-29T19:48:31.059Z,101251.27
2023-03-29T19:51:58.933Z,101242.00
2023-03-29T19:55:27.015Z,101243.38
2023-03-29T19:58:54.881Z,101237.10
2023-03-29T20:02:22.676Z,101235.52
2023-03-29T20:05:31.714Z,101237.41
2023-03-29T20:08:40.849Z,101236.03
2023-03-29T20:12:08.912Z,101235.91
2023-03-29T20:15:36.850Z,101236.06
2023-03-29T20:19:04.772Z,101241.72
2023-03-29T20:22:32.708Z,101241.70
2023-03-29T20:26:00.624Z,101242.15
2023-03-29T20:29:29.126Z,101238.96
2023-03-29T20:32:56.736Z,101235.86
2023-03-29T20:36:05.456Z,101240.19
2023-03-29T20:39:33.412Z,101242.31
2023-03-29T20:43:01.229Z,101239.90
2023-03-29T20:46:29.478Z,101232.38
2023-03-29T20:49:57.374Z,101226.18
2023-03-29T20:53:07.612Z,101227.77
2023-03-29T20:56:36.467Z,101226.52
2023-03-29T21:00:04.709Z,101225.58
2023-03-29T21:03:13.915Z,101225.30
2023-03-29T21:06:41.994Z,101219.04
2023-03-29T21:10:10.744Z,101217.30
2023-03-29T21:13:38.585Z,101214.01
2023-03-29T21:17:07.314Z,101214.00
2023-03-29T21:20:35.289Z,101211.60
2023-03-29T21:24:03.076Z,101213.78
2023-03-29T21:27:30.841Z,101214.41
2023-03-29T21:30:58.892Z,101214.04
2023-03-29T21:34:26.890Z,101209.23
2023-03-29T21:37:54.956Z,101209.09
2023-03-29T21:41:22.728Z,101214.35
2023-03-29T21:44:11.800Z,101212.70
2023-03-29T21:47:39.885Z,101211.34
2023-03-29T21:51:07.707Z,101208.86
2023-03-29T21:54:15.704Z,101203.43
2023-03-29T21:57:43.572Z,101206.50
2023-03-29T22:01:11.940Z,101207.45
2023-03-29T22:04:39.756Z,101205.96
2023-03-29T22:08:07.737Z,101207.59
2023-03-29T22:11:35.789Z,101203.24
2023-03-29T22:15:03.647Z,101208.17
2023-03-29T22:18:31.409Z,101203.77
2023-03-29T22:21:59.195Z,101201.98
2023-03-29T22:25:27.158Z,101200.08
2023-03-29T22:28:55.117Z,101207.14
2023-03-29T22:32:23.453Z,101206.49
2023-03-29T22:35:55.921Z,101206.11
2023-03-29T22:39:24.251Z,101211.04
2023-03-29T22:42:52.102Z,101214.23
2023-03-29T22:46:20.040Z,101208.89
2023-03-29T22:49:47.803Z,101217.73
2023-03-29T22:53:15.752Z,101226.44
2023-03-29T22:56:24.961Z,101230.76
2023-03-29T22:59:53.146Z,101235.10
2023-03-29T23:03:21.001Z,101238.72
2023-03-29T23:06:48.959Z,101241.05
2023-03-29T23:10:16.865Z,101238.09
2023-03-29T23:13:44.729Z,101233.52
2023-03-29T23:17:12.535Z,101230.38
2023-03-29T23:20:41.376Z,101228.77
2023-03-29T23:24:09.695Z,101225.55
2023-03-29T23:27:37.309Z,101221.52
2023-03-29T23:31:06.598Z,101219.15
2023-03-29T23:34:34.313Z,101217.64
2023-03-29T23:38:02.079Z,101209.31
2023-03-29T23:41:29.878Z,101225.52
2023-03-29T23:44:57.725Z,101228.65
2023-03-29T23:48:25.723Z,101224.93
2023-03-29T23:51:53.885Z,101218.50
2023-03-29T23:55:23.076Z,101216.99
2023-03-29T23:58:51.061Z,101227.44
